createdAt,value
2023-02-14T00:00:34.201Z,101894.00
2023-02-14T00:03:49.866Z,101880.44
2023-02-14T00:06:53.426Z,101890.78
2023-02-14T00:09:57.040Z,101900.50
2023-02-14T00:13:00.894Z,101893.81
2023-02-14T00:16:05.328Z,101877.00
2023-02-14T00:19:12.246Z,101884.78
2023-02-14T00:22:16.413Z,101899.75
2023-02-14T00:25:20.412Z,101894.16
2023-02-14T00:28:24.400Z,101901.44
2023-02-14T00:31:28.741Z,101899.88
2023-02-14T00:34:33.853Z,101898.75
2023-02-14T00:37:37.506Z,101906.94
2023-02-14T00:40:41.709Z,101900.66
2023-02-14T00:43:50.313Z,101901.78
2023-02-14T00:46:54.245Z,101908.91
2023-02-14T00:50:03.276Z,101913.97
2023-02-14T00:53:13.322Z,101916.06
2023-02-14T00:56:18.981Z,101897.94
2023-02-14T00:59:22.855Z,101911.13
2023-02-14T01:02:26.993Z,101908.19
2023-02-14T01:05:31.693Z,101910.44
2023-02-14T01:08:35.853Z,101913.69
2023-02-14T01:11:41.039Z,101911.31
2023-02-14T01:14:45.179Z,101908.91
2023-02-14T01:17:49.939Z,101899.09
2023-02-14T01:20:53.493Z,101909.88
2023-02-14T01:24:03.816Z,101911.81
2023-02-14T01:27:07.737Z,101914.22
2023-02-14T01:30:12.577Z,101914.97
2023-02-14T01:33:17.101Z,101933.97
2023-02-14T01:36:38.670Z,101933.53
2023-02-14T01:39:53.017Z,101930.19
2023-02-14T01:43:02.454Z,101934.47
2023-02-14T01:46:06.201Z,101932.88
2023-02-14T01:49:50.005Z,101916.41
2023-02-14T01:53:09.803Z,101920.97
2023-02-14T01:56:28.587Z,101946.72
2023-02-14T01:59:53.265Z,101931.44
2023-02-14T02:03:00.813Z,101949.19
2023-02-14T02:06:20.309Z,101951.03
2023-02-14T02:13:09.887Z,101940.38
2023-02-14T02:20:39.713Z,101955.66
2023-02-14T02:23:58.951Z,101962.28
2023-02-14T02:27:26.216Z,101966.28
2023-02-14T02:31:15.331Z,101958.00
2023-02-14T02:34:50.634Z,101983.63
2023-02-14T02:38:16.052Z,101977.94
2023-02-14T02:41:32.209Z,101987.19
2023-02-14T02:44:43.735Z,101987.03
2023-02-14T02:48:15.992Z,101971.41
2023-02-14T02:52:01.092Z,101970.63
2023-02-14T02:55:08.942Z,101977.97
2023-02-14T02:58:27.938Z,101979.38
2023-02-14T03:01:42.058Z,101980.94
2023-02-14T03:04:57.100Z,101979.88
2023-02-14T03:08:01.772Z,101968.31
2023-02-14T03:11:06.285Z,101977.66
2023-02-14T03:14:20.255Z,101968.69
2023-02-14T03:17:44.899Z,101976.63
2023-02-14T03:21:01.519Z,101973.41
2023-02-14T03:24:14.880Z,101976.09
2023-02-14T03:27:28.072Z,101970.84
2023-02-14T03:30:39.540Z,101970.56
2023-02-14T03:33:51.292Z,101968.66
2023-02-14T03:36:59.130Z,101973.34
2023-02-14T03:40:13.984Z,101985.34
2023-02-14T03:43:23.491Z,101987.06
2023-02-14T03:47:09.168Z,101977.00
2023-02-14T03:50:19.010Z,101988.94
2023-02-14T03:53:30.481Z,101990.91
2023-02-14T03:56:45.217Z,101983.94
2023-02-14T03:59:57.176Z,101986.75
2023-02-14T04:03:06.983Z,101970.63
2023-02-14T04:06:21.383Z,101975.44
2023-02-14T04:09:25.756Z,101976.88
2023-02-14T04:12:37.762Z,101980.44
2023-02-14T04:15:42.465Z,101982.59
2023-02-14T04:19:09.718Z,101985.03
2023-02-14T04:22:13.294Z,101980.72
2023-02-14T04:25:17.183Z,101972.78
2023-02-14T04:28:21.109Z,101984.88
2023-02-14T04:31:35.532Z,101980.88
2023-02-14T04:34:40.583Z,101983.69
2023-02-14T04:37:47.831Z,101983.09
2023-02-14T04:40:53.190Z,101974.78
2023-02-14T04:44:07.138Z,101987.91
2023-02-14T04:47:11.139Z,101984.44
2023-02-14T04:50:16.043Z,101975.38
2023-02-14T04:53:19.882Z,101967.50
2023-02-14T04:56:23.641Z,101957.47
2023-02-14T04:59:28.688Z,101965.13
2023-02-14T05:02:32.552Z,101967.28
2023-02-14T05:05:36.178Z,101956.22
2023-02-14T05:08:44.862Z,101956.88
2023-02-14T05:11:53.833Z,101962.13
2023-02-14T05:15:07.907Z,101956.84
2023-02-14T05:18:11.626Z,101953.13
2023-02-14T05:21:15.474Z,101966.78
2023-02-14T05:24:19.322Z,101960.19
2023-02-14T05:27:27.842Z,101958.28
2023-02-14T05:30:31.547Z,101962.00
2023-02-14T05:33:35.662Z,101963.03
2023-02-14T05:36:40.137Z,101959.38
2023-02-14T05:39:53.976Z,101967.94
2023-02-14T05:42:57.904Z,101973.56
2023-02-14T05:46:01.824Z,101966.16
2023-02-14T05:49:08.001Z,101965.94
2023-02-14T05:52:21.877Z,101972.47
2023-02-14T05:55:26.702Z,101976.03
2023-02-14T05:58:41.254Z,101978.72
2023-02-14T06:01:45.307Z,101977.88
2023-02-14T06:04:49.692Z,101978.47
2023-02-14T06:07:54.142Z,101986.03
2023-02-14T06:11:12.968Z,101981.59
2023-02-14T06:14:21.890Z,101984.81
2023-02-14T06:17:28.172Z,101984.66
2023-02-14T06:20:32.603Z,101992.59
2023-02-14T06:23:37.090Z,101998.34
2023-02-14T06:26:46.380Z,101987.19
2023-02-14T06:29:50.431Z,101984.91
2023-02-14T06:33:00.515Z,101986.22
2023-02-14T06:36:11.095Z,101992.28
2023-02-14T06:39:26.898Z,101986.63
2023-02-14T06:42:30.880Z,101993.91
2023-02-14T06:45:46.982Z,101985.53
2023-02-14T06:49:00.908Z,101991.34
2023-02-14T06:52:09.554Z,101978.69
2023-02-14T06:55:14.404Z,101981.34
2023-02-14T06:58:24.472Z,101990.91
2023-02-14T07:01:29.084Z,101984.19
2023-02-14T07:04:33.242Z,101975.94
2023-02-14T07:07:42.243Z,101981.25
2023-02-14T07:10:58.550Z,101981.38
2023-02-14T07:14:03.190Z,101974.81
2023-02-14T07:17:07.330Z,101984.44
2023-02-14T07:20:21.174Z,101973.34
2023-02-14T07:23:25.863Z,101961.41
2023-02-14T07:26:29.548Z,101967.16
2023-02-14T07:29:33.510Z,101966.38
2023-02-14T07:32:44.118Z,101962.13
2023-02-14T07:35:59.557Z,101958.84
2023-02-14T07:39:03.165Z,101967.19
2023-02-14T07:42:08.675Z,101951.00
2023-02-14T07:45:21.739Z,101961.47
2023-02-14T07:48:31.891Z,101955.22
2023-02-14T07:51:37.144Z,101961.13
2023-02-14T07:54:41.227Z,101959.63
2023-02-14T07:57:48.631Z,101951.28
2023-02-14T08:00:53.008Z,101940.31
2023-02-14T08:03:56.558Z,101942.38
2023-02-14T08:07:05.111Z,101954.53
2023-02-14T08:10:12.611Z,101934.50
2023-02-14T08:13:16.583Z,101941.72
2023-02-14T08:16:20.734Z,101950.59
2023-02-14T08:19:25.383Z,101952.06
2023-02-14T08:22:30.422Z,101937.44
2023-02-14T08:25:40.800Z,101939.25
2023-02-14T08:28:45.366Z,101939.81
2023-02-14T08:32:01.914Z,101948.53
2023-02-14T08:35:05.896Z,101945.81
2023-02-14T08:38:15.679Z,101960.75
2023-02-14T08:41:19.853Z,101955.84
2023-02-14T08:44:24.162Z,101955.38
2023-02-14T08:47:28.000Z,101956.19
2023-02-14T08:50:31.772Z,101957.50
2023-02-14T08:53:44.163Z,101954.09
2023-02-14T08:56:49.045Z,101962.09
2023-02-14T08:59:52.967Z,101944.47
2023-02-14T09:03:03.457Z,101946.13
2023-02-14T09:06:14.493Z,101948.22
2023-02-14T09:09:19.914Z,101953.84
2023-02-14T09:12:23.980Z,101953.50
2023-02-14T09:15:29.447Z,101944.88
2023-02-14T09:18:33.419Z,101946.94
2023-02-14T09:21:38.321Z,101934.13
2023-02-14T09:24:42.765Z,101934.94
2023-02-14T09:27:46.654Z,101936.63
2023-02-14T09:30:54.446Z,101927.34
2023-02-14T09:34:05.095Z,101928.00
2023-02-14T09:37:31.046Z,101928.75
2023-02-14T09:40:40.028Z,101931.78
2023-02-14T09:44:00.078Z,101928.31
2023-02-14T09:47:31.325Z,101931.91
2023-02-14T09:50:54.676Z,101920.28
2023-02-14T09:54:13.519Z,101922.34
2023-02-14T09:57:26.191Z,101935.94
2023-02-14T10:01:00.959Z,101933.94
2023-02-14T10:04:09.024Z,101937.09
2023-02-14T10:07:34.519Z,101933.13
2023-02-14T10:10:44.830Z,101941.56
2023-02-14T10:13:55.818Z,101934.78
2023-02-14T10:17:38.197Z,101933.84
2023-02-14T10:20:51.337Z,101929.94
2023-02-14T10:24:14.900Z,101936.00
2023-02-14T10:27:44.315Z,101928.94
2023-02-14T10:31:23.397Z,101931.19
2023-02-14T10:34:49.870Z,101926.69
2023-02-14T10:37:55.492Z,101926.03
2023-02-14T10:41:12.248Z,101931.69
2023-02-14T10:44:24.889Z,101934.09
2023-02-14T10:48:13.722Z,101928.59
2023-02-14T10:51:47.439Z,101925.44
2023-02-14T10:55:32.096Z,101934.25
2023-02-14T10:58:40.508Z,101942.81
2023-02-14T11:01:44.430Z,101946.69
2023-02-14T11:04:54.269Z,101948.47
2023-02-14T11:07:59.572Z,101956.91
2023-02-14T11:11:15.577Z,101949.88
2023-02-14T11:14:26.899Z,101954.88
2023-02-14T11:17:33.173Z,101943.44
2023-02-14T11:20:38.040Z,101951.94
2023-02-14T11:23:52.364Z,101943.78
2023-02-14T11:27:07.846Z,101945.59
2023-02-14T11:30:43.948Z,101957.88
2023-02-14T11:33:58.758Z,101960.38
2023-02-14T11:37:04.332Z,101955.34
2023-02-14T11:40:40.319Z,101955.03
2023-02-14T11:43:52.505Z,101952.28
2023-02-14T11:47:30.385Z,101960.13
2023-02-14T11:50:35.021Z,101947.50
2023-02-14T11:53:52.669Z,101953.19
2023-02-14T11:57:14.115Z,101952.06
2023-02-14T12:00:20.675Z,101948.81
2023-02-14T12:03:25.333Z,101949.69
2023-02-14T12:06:37.003Z,101949.38
2023-02-14T12:09:43.147Z,101947.44
2023-02-14T12:13:09.957Z,101942.66
2023-02-14T12:16:26.819Z,101952.28
2023-02-14T12:19:56.269Z,101951.41
2023-02-14T12:23:35.995Z,101956.06
2023-02-14T12:26:47.301Z,101950.53
2023-02-14T12:29:57.161Z,101950.00
2023-02-14T12:33:02.099Z,101949.22
2023-02-14T12:40:43.464Z,101955.94
2023-02-14T12:43:59.300Z,101948.19
2023-02-14T12:47:18.162Z,101960.63
2023-02-14T12:50:36.973Z,101964.56
2023-02-14T12:54:03.910Z,101960.31
2023-02-14T12:57:25.961Z,101966.09
2023-02-14T13:00:57.834Z,101974.47
2023-02-14T13:04:41.063Z,101981.66
2023-02-14T13:07:55.170Z,101994.59
2023-02-14T13:11:16.428Z,101983.44
2023-02-14T13:14:33.757Z,101987.91
2023-02-14T13:17:47.995Z,101988.19
2023-02-14T13:21:14.941Z,102000.47
2023-02-14T13:24:22.871Z,101995.81
2023-02-14T13:27:37.989Z,101996.44
2023-02-14T13:30:46.957Z,101998.03
2023-02-14T13:33:57.730Z,101997.09
2023-02-14T13:37:06.770Z,101986.22
2023-02-14T13:40:35.776Z,101999.03
2023-02-14T13:43:53.251Z,102000.75
2023-02-14T13:47:15.837Z,101994.88
2023-02-14T13:50:23.103Z,101988.53
2023-02-14T13:53:48.695Z,101990.31
2023-02-14T13:56:52.921Z,101987.03
2023-02-14T14:00:18.159Z,101999.09
2023-02-14T14:03:33.046Z,101996.50
2023-02-14T14:07:04.713Z,101987.91
2023-02-14T14:10:12.545Z,101979.31
2023-02-14T14:13:54.166Z,101978.09
2023-02-14T14:17:00.580Z,101971.03
2023-02-14T14:20:25.663Z,101972.41
2023-02-14T14:23:39.443Z,101968.91
2023-02-14T14:27:01.339Z,101973.56
2023-02-14T14:30:20.086Z,101964.97
2023-02-14T14:33:35.472Z,101965.25
2023-02-14T14:36:49.534Z,101954.38
2023-02-14T14:40:01.354Z,101955.63
2023-02-14T14:47:00.525Z,101972.38
2023-02-14T14:50:10.739Z,101981.69
2023-02-14T14:53:45.236Z,101967.06
2023-02-14T14:57:02.109Z,101974.56
2023-02-14T15:04:15.621Z,101971.03
2023-02-14T15:07:38.318Z,101965.81
2023-02-14T15:10:43.566Z,101964.69
2023-02-14T15:13:58.732Z,101965.69
2023-02-14T15:17:08.801Z,101960.69
2023-02-14T15:20:24.464Z,101965.63
2023-02-14T15:23:28.628Z,101954.34
2023-02-14T15:26:36.459Z,101962.63
2023-02-14T15:29:59.704Z,101949.00
2023-02-14T15:33:14.002Z,101950.88
2023-02-14T15:36:21.958Z,101951.09
2023-02-14T15:39:43.799Z,101963.91
2023-02-14T15:43:12.056Z,101967.63
2023-02-14T15:46:28.931Z,101959.66
2023-02-14T15:49:41.633Z,101959.19
2023-02-14T15:52:47.837Z,101960.56
2023-02-14T15:55:52.343Z,101960.00
2023-02-14T15:59:07.615Z,101948.75
2023-02-14T16:02:38.153Z,101951.66
2023-02-14T16:05:48.102Z,101945.94
2023-02-14T16:08:57.115Z,101941.28
2023-02-14T16:12:25.134Z,101933.13
2023-02-14T16:15:34.466Z,101946.44
2023-02-14T16:18:41.820Z,101939.13
2023-02-14T16:21:57.952Z,101935.44
2023-02-14T16:25:04.738Z,101924.16
2023-02-14T16:28:14.757Z,101944.31
2023-02-14T16:31:18.563Z,101926.84
2023-02-14T16:34:29.221Z,101933.63
2023-02-14T16:37:46.417Z,101943.56
2023-02-14T16:40:53.753Z,101933.38
2023-02-14T16:44:02.550Z,101930.19
2023-02-14T16:47:12.975Z,101937.34
2023-02-14T16:50:18.194Z,101930.69
2023-02-14T16:53:32.697Z,101922.44
2023-02-14T16:56:51.905Z,101940.25
2023-02-14T16:59:57.689Z,101935.91
2023-02-14T17:03:08.506Z,101929.13
2023-02-14T17:06:22.328Z,101922.97
2023-02-14T17:09:42.008Z,101920.13
2023-02-14T17:12:49.150Z,101920.16
2023-02-14T17:15:58.206Z,101920.81
2023-02-14T17:19:03.712Z,101913.97
2023-02-14T17:22:08.195Z,101913.66
2023-02-14T17:25:12.789Z,101915.38
2023-02-14T17:28:19.881Z,101902.78
2023-02-14T17:31:23.577Z,101904.53
2023-02-14T17:34:32.664Z,101897.38
2023-02-14T17:37:37.646Z,101898.88
2023-02-14T17:40:43.218Z,101893.81
2023-02-14T17:43:47.444Z,101901.41
2023-02-14T17:46:51.482Z,101895.03
2023-02-14T17:49:55.131Z,101890.34
2023-02-14T17:53:09.907Z,101886.44
2023-02-14T17:56:22.469Z,101895.66
2023-02-14T17:59:26.727Z,101883.03
2023-02-14T18:02:39.185Z,101874.25
2023-02-14T18:05:42.909Z,101879.88
2023-02-14T18:08:50.315Z,101881.31
2023-02-14T18:12:00.122Z,101873.75
2023-02-14T18:15:14.366Z,101891.22
2023-02-14T18:18:18.438Z,101882.47
2023-02-14T18:21:22.301Z,101885.09
2023-02-14T18:24:26.628Z,101880.38
2023-02-14T18:27:30.296Z,101877.56
2023-02-14T18:30:44.194Z,101881.84
2023-02-14T18:33:49.640Z,101880.31
2023-02-14T18:36:56.187Z,101884.97
2023-02-14T18:40:00.348Z,101885.09
2023-02-14T18:43:04.465Z,101879.25
2023-02-14T18:46:20.022Z,101869.38
2023-02-14T18:49:23.941Z,101883.44
2023-02-14T18:52:28.076Z,101876.00
2023-02-14T18:55:32.524Z,101891.50
2023-02-14T18:58:37.323Z,101892.94
2023-02-14T19:01:46.488Z,101887.25
2023-02-14T19:04:59.486Z,101896.63
2023-02-14T19:08:03.999Z,101890.91
2023-02-14T19:11:22.503Z,101880.97
2023-02-14T19:14:32.401Z,101884.50
2023-02-14T19:17:37.889Z,101874.91
2023-02-14T19:20:42.219Z,101879.47
2023-02-14T19:23:46.872Z,101868.53
2023-02-14T19:26:50.516Z,101881.06
2023-02-14T19:29:54.340Z,101886.91
2023-02-14T19:33:08.070Z,101886.13
2023-02-14T19:36:19.815Z,101879.66
2023-02-14T19:39:24.887Z,101885.41
2023-02-14T19:42:40.575Z,101883.69
2023-02-14T19:45:54.573Z,101878.97
2023-02-14T19:48:59.364Z,101876.56
2023-02-14T19:52:06.230Z,101868.06
2023-02-14T19:55:22.487Z,101879.03
2023-02-14T19:58:37.148Z,101870.47
2023-02-14T20:01:49.801Z,101881.81
2023-02-14T20:04:53.921Z,101874.97
2023-02-14T20:07:59.479Z,101886.63
2023-02-14T20:11:27.396Z,101880.47
2023-02-14T20:14:49.818Z,101877.47
2023-02-14T20:17:59.370Z,101873.16
2023-02-14T20:21:03.377Z,101861.69
2023-02-14T20:24:22.175Z,101851.44
2023-02-14T20:27:26.374Z,101851.47
2023-02-14T20:30:30.158Z,101833.59
2023-02-14T20:33:44.184Z,101846.03
2023-02-14T20:36:56.302Z,101847.34
2023-02-14T20:40:00.970Z,101844.91
2023-02-14T20:43:04.847Z,101833.28
2023-02-14T20:46:09.120Z,101832.59
2023-02-14T20:49:13.116Z,101832.13
2023-02-14T20:52:18.424Z,101834.28
2023-02-14T20:55:22.294Z,101831.59
2023-02-14T20:58:26.203Z,101836.50
2023-02-14T21:01:30.976Z,101833.28
2023-02-14T21:04:35.572Z,101843.28
2023-02-14T21:07:39.401Z,101833.66
2023-02-14T21:10:43.238Z,101837.47
2023-02-14T21:13:47.947Z,101839.72
2023-02-14T21:17:04.708Z,101847.03
2023-02-14T21:20:20.068Z,101845.59
2023-02-14T21:23:27.255Z,101845.66
2023-02-14T21:26:32.404Z,101840.00
2023-02-14T21:29:36.211Z,101852.03
2023-02-14T21:32:40.263Z,101854.63
2023-02-14T21:35:51.785Z,101847.16
2023-02-14T21:39:06.835Z,101846.53
2023-02-14T21:42:12.364Z,101843.56
2023-02-14T21:45:34.862Z,101846.44
2023-02-14T21:48:59.978Z,101853.28
2023-02-14T21:52:04.446Z,101847.16
2023-02-14T21:55:08.848Z,101857.63
2023-02-14T21:58:13.574Z,101858.75
2023-02-14T22:01:30.544Z,101857.03
2023-02-14T22:04:40.173Z,101844.84
2023-02-14T22:07:43.894Z,101838.38
2023-02-14T22:10:48.369Z,101845.63
2023-02-14T22:13:51.984Z,101843.53
2023-02-14T22:16:56.800Z,101836.16
2023-02-14T22:20:00.954Z,101834.44
2023-02-14T22:23:05.835Z,101835.31
2023-02-14T22:26:20.090Z,101828.09
2023-02-14T22:29:23.752Z,101833.06
2023-02-14T22:32:38.833Z,101827.91
2023-02-14T22:35:43.004Z,101841.81
2023-02-14T22:38:47.120Z,101840.19
2023-02-14T22:41:55.869Z,101824.28
2023-02-14T22:45:00.101Z,101833.97
2023-02-14T22:48:04.901Z,101838.03
2023-02-14T22:51:30.620Z,101818.91
2023-02-14T22:54:44.703Z,101817.22
2023-02-14T22:57:48.325Z,101806.88
2023-02-14T23:00:57.214Z,101808.59
2023-02-14T23:04:02.803Z,101809.66
2023-02-14T23:07:06.982Z,101809.59
2023-02-14T23:10:11.804Z,101811.50
2023-02-14T23:13:34.975Z,101804.16
2023-02-14T23:16:56.895Z,101812.78
2023-02-14T23:20:29.765Z,101811.53
2023-02-14T23:23:34.502Z,101803.28
2023-02-14T23:26:43.769Z,101795.69
2023-02-14T23:29:47.997Z,101800.22
2023-02-14T23:32:51.992Z,101795.25
2023-02-14T23:36:04.671Z,101795.97
2023-02-14T23:39:08.411Z,101810.78
2023-02-14T23:42:15.061Z,101791.44
2023-02-14T23:45:35.184Z,101799.94
2023-02-14T23:48:42.822Z,101808.78
2023-02-14T23:51:50.472Z,101811.25
2023-02-14T23:55:00.932Z,101821.59
2023-02-14T23:58:11.034Z,101807.78
